Time;durP1;ratioP1;P1;durP2;ratioP2;P2;SDS_P1;SDS_P2;PMS_P1;PMS_P2;Temp;Humidity;BMP_temperature;BMP_pressure;BME280_temperature;BME280_humidity;BME280_pressure;Samples;Min_cycle;Max_cycle;Signal;HPM_P1;HPM_P2
2023/06/18 00:00:19;;;;;;;2.40;2.10;;;;;;;;;;2046912;29;20028;-91
2023/06/18 00:01:20;;;;;;;3.17;1.42;;;;;;;;;;2056622;29;20110;-91
2023/06/18 00:02:20;;;;;;;2.42;1.25;;;;;;;;;;2055284;29;20038;-91
2023/06/18 00:03:21;;;;;;;5.10;2.85;;;;;;;;;;2045880;29;20031;-91
2023/06/18 00:04:21;;;;;;;3.60;1.45;;;;;;;;;;2042311;29;20512;-91
2023/06/18 00:05:22;;;;;;;3.53;1.40;;;;;;;;;;2041488;29;20035;-91
2023/06/18 00:06:23;;;;;;;1.83;1.05;;;;;;;;;;2048733;29;20027;-90
2023/06/18 00:07:23;;;;;;;3.35;1.30;;;;;;;;;;2049012;29;20078;-91
2023/06/18 00:08:24;;;;;;;1.50;1.40;;;;;;;;;;2048563;29;20035;-91
2023/06/18 00:09:25;;;;;;;2.03;1.45;;;;;;;;;;2048932;29;20414;-91
2023/06/18 00:10:25;;;;;;;1.80;1.48;;;;;;;;;;2048777;29;20038;-91
2023/06/18 00:11:25;;;;;;;2.30;1.27;;;;;;;;;;2048655;29;20475;-90
2023/06/18 00:12:26;;;;;;;2.10;1.40;;;;;;;;;;2048701;29;20031;-89
2023/06/18 00:13:26;;;;;;;3.03;1.40;;;;;;;;;;2048851;29;20027;-90
2023/06/18 00:14:29;;;;;;;1.70;1.38;;;;;;;;;;2048674;29;20027;-91
2023/06/18 00:15:30;;;;;;;2.72;1.25;;;;;;;;;;2040771;29;20051;-92
2023/06/18 00:16:30;;;;;;;3.13;1.55;;;;;;;;;;2048854;29;20051;-92
2023/06/18 00:17:31;;;;;;;4.22;1.80;;;;;;;;;;2049306;29;20384;-91
2023/06/18 00:18:33;;;;;;;3.55;1.40;;;;;;;;;;2049291;29;20491;-92
2023/06/18 00:19:34;;;;;;;3.58;1.48;;;;;;;;;;2048514;29;20043;-91
2023/06/18 00:20:34;;;;;;;2.03;1.73;;;;;;;;;;2048391;29;20019;-92
2023/06/18 00:21:35;;;;;;;3.40;1.42;;;;;;;;;;2048806;29;20133;-92
2023/06/18 00:22:38;;;;;;;3.40;1.63;;;;;;;;;;2040650;29;20036;-92
2023/06/18 00:23:38;;;;;;;4.40;1.70;;;;;;;;;;2040566;29;20062;-91
2023/06/18 00:24:39;;;;;;;4.65;1.70;;;;;;;;;;2049073;29;20023;-92
2023/06/18 00:25:39;;;;;;;1.95;1.40;;;;;;;;;;2048958;28;20406;-92
2023/06/18 00:26:40;;;;;;;1.67;1.40;;;;;;;;;;2048197;29;20019;-91
2023/06/18 00:27:42;;;;;;;2.40;1.40;;;;;;;;;;2040155;29;20027;-92
2023/06/18 00:28:42;;;;;;;3.45;1.90;;;;;;;;;;2040275;29;20023;-91
2023/06/18 00:29:46;;;;;;;3.53;2.15;;;;;;;;;;2048007;29;20523;-92
2023/06/18 00:30:47;;;;;;;5.20;2.67;;;;;;;;;;2047932;29;20023;-92
2023/06/18 00:31:47;;;;;;;2.33;1.60;;;;;;;;;;2047956;29;20032;-92
2023/06/18 00:32:48;;;;;;;2.10;1.38;;;;;;;;;;2048049;29;20479;-91
2023/06/18 00:33:48;;;;;;;3.75;1.60;;;;;;;;;;2048031;29;20015;-92
2023/06/18 00:34:53;;;;;;;5.18;2.10;;;;;;;;;;2047861;29;20085;-91
2023/06/18 00:35:56;;;;;;;3.83;1.83;;;;;;;;;;2040669;29;20027;-92
2023/06/18 00:37:02;;;;;;;4.53;2.10;;;;;;;;;;2048120;29;20484;-91
2023/06/18 00:38:03;;;;;;;2.15;1.77;;;;;;;;;;2051049;28;20058;-92
2023/06/18 00:39:03;;;;;;;3.05;1.90;;;;;;;;;;2055213;28;20042;-90
2023/06/18 00:40:05;;;;;;;1.98;1.67;;;;;;;;;;2049278;28;20427;-91
2023/06/18 00:41:06;;;;;;;3.67;1.73;;;;;;;;;;2048947;28;20101;-92
2023/06/18 00:42:11;;;;;;;5.03;1.92;;;;;;;;;;2049062;29;20023;-91
2023/06/18 00:43:11;;;;;;;6.22;2.45;;;;;;;;;;2048415;29;20023;-91
2023/06/18 00:44:12;;;;;;;6.22;1.90;;;;;;;;;;2039839;29;20027;-93
2023/06/18 00:45:12;;;;;;;4.53;2.03;;;;;;;;;;2040246;29;20063;-92
2023/06/18 00:46:13;;;;;;;3.88;1.90;;;;;;;;;;2040270;29;20047;-91
2023/06/18 00:47:13;;;;;;;2.67;1.90;;;;;;;;;;2040048;29;20028;-92
2023/06/18 00:48:14;;;;;;;2.83;1.70;;;;;;;;;;2048388;29;20078;-91
2023/06/18 00:49:18;;;;;;;5.07;1.80;;;;;;;;;;2048941;28;20030;-92
2023/06/18 00:50:19;;;;;;;3.53;1.90;;;;;;;;;;2048756;28;20027;-94
2023/06/18 00:51:26;;;;;;;3.20;2.13;;;;;;;;;;2048039;29;20121;-92
2023/06/18 00:52:28;;;;;;;3.05;1.80;;;;;;;;;;2050930;28;20054;-91
2023/06/18 00:53:30;;;;;;;5.25;2.35;;;;;;;;;;2048305;29;20034;-92
2023/06/18 00:54:34;;;;;;;3.85;1.98;;;;;;;;;;2047908;29;20023;-91
2023/06/18 00:55:37;;;;;;;4.20;1.77;;;;;;;;;;1699386;28;10199808;-90
2023/06/18 00:56:38;;;;;;;6.45;2.20;;;;;;;;;;2040318;29;20322;-91
2023/06/18 00:57:41;;;;;;;6.13;1.80;;;;;;;;;;2047764;29;20027;-91
2023/06/18 00:58:44;;;;;;;4.28;1.90;;;;;;;;;;2047884;29;20115;-90
2023/06/18 00:59:46;;;;;;;5.85;1.88;;;;;;;;;;2039875;29;20027;-90
2023/06/18 01:00:48;;;;;;;6.95;1.98;;;;;;;;;;2048458;29;20027;-91
2023/06/18 01:01:51;;;;;;;7.85;1.90;;;;;;;;;;2047595;29;20051;-91
2023/06/18 01:02:53;;;;;;;4.25;1.85;;;;;;;;;;2040075;29;20039;-91
2023/06/18 01:03:56;;;;;;;8.15;2.42;;;;;;;;;;2048897;29;20043;-91
2023/06/18 01:04:57;;;;;;;4.38;2.10;;;;;;;;;;2041425;29;20582;-91
2023/06/18 01:06:01;;;;;;;3.95;1.98;;;;;;;;;;2048433;29;20046;-91
2023/06/18 01:07:02;;;;;;;3.53;2.30;;;;;;;;;;2048505;29;20065;-90
2023/06/18 01:08:07;;;;;;;5.43;2.00;;;;;;;;;;2049268;28;20031;-90
2023/06/18 01:09:15;;;;;;;4.63;2.10;;;;;;;;;;2049309;28;20030;-90
2023/06/18 01:10:17;;;;;;;4.57;2.42;;;;;;;;;;2052372;28;20103;-91
2023/06/18 01:11:18;;;;;;;7.80;3.47;;;;;;;;;;2048847;29;20047;-92
2023/06/18 01:12:27;;;;;;;4.20;2.40;;;;;;;;;;2040736;29;20028;-91
2023/06/18 01:13:32;;;;;;;7.35;3.00;;;;;;;;;;2051075;28;20023;-91
2023/06/18 01:14:37;;;;;;;5.40;3.33;;;;;;;;;;2048356;29;20019;-92
2023/06/18 01:15:38;;;;;;;4.32;2.70;;;;;;;;;;2041140;29;20023;-91
2023/06/18 01:16:46;;;;;;;7.00;2.90;;;;;;;;;;2040382;29;20512;-92
2023/06/18 01:17:48;;;;;;;5.35;3.00;;;;;;;;;;2048488;29;20091;-91
2023/06/18 01:18:50;;;;;;;5.47;2.88;;;;;;;;;;2048686;29;20019;-90
2023/06/18 01:20:10;;;;;;;6.82;3.13;;;;;;;;;;2048667;29;20451;-92
2023/06/18 01:21:15;;;;;;;8.52;2.95;;;;;;;;;;2048695;29;20067;-93
2023/06/18 01:22:37;;;;;;;9.65;3.33;;;;;;;;;;2049215;29;20054;-93
2023/06/18 01:23:50;;;;;;;7.60;3.03;;;;;;;;;;2050350;28;20027;-94
2023/06/18 01:24:54;;;;;;;6.70;3.17;;;;;;;;;;2049729;28;20065;-92
2023/06/18 01:25:57;;;;;;;4.63;2.95;;;;;;;;;;2048598;29;20486;-93
2023/06/18 01:27:02;;;;;;;7.38;3.03;;;;;;;;;;2049876;29;20419;-92
2023/06/18 01:28:07;;;;;;;7.57;3.38;;;;;;;;;;2055330;29;20054;-89
2023/06/18 01:29:10;;;;;;;6.85;3.38;;;;;;;;;;2043634;29;20174;-92
2023/06/18 01:30:12;;;;;;;5.78;3.42;;;;;;;;;;2041456;29;20031;-90
2023/06/18 01:31:20;;;;;;;9.05;3.35;;;;;;;;;;2041254;29;20029;-93
2023/06/18 01:32:21;;;;;;;9.23;3.15;;;;;;;;;;2041833;29;20523;-92
2023/06/18 01:33:25;;;;;;;8.80;3.38;;;;;;;;;;2049616;29;20043;-93
2023/06/18 01:34:27;;;;;;;3.72;2.92;;;;;;;;;;2049443;28;20023;-90
2023/06/18 01:35:28;;;;;;;6.68;3.10;;;;;;;;;;2040893;29;20034;-90
2023/06/18 01:36:53;;;;;;;4.45;2.78;;;;;;;;;;2041047;29;20055;-91
2023/06/18 01:38:13;;;;;;;4.78;2.90;;;;;;;;;;2049321;28;20411;-92
2023/06/18 01:39:37;;;;;;;11.10;3.20;;;;;;;;;;2049569;28;20047;-92
2023/06/18 01:40:49;;;;;;;5.70;3.00;;;;;;;;;;2048157;29;20042;-92
2023/06/18 01:41:55;;;;;;;3.72;2.83;;;;;;;;;;2042124;29;20119;-92
2023/06/18 01:43:01;;;;;;;4.93;2.90;;;;;;;;;;2048582;29;20031;-90
2023/06/18 01:44:06;;;;;;;7.15;3.25;;;;;;;;;;2049080;29;20039;-90
2023/06/18 01:45:31;;;;;;;6.93;3.58;;;;;;;;;;2040982;29;20098;-89
2023/06/18 01:46:33;;;;;;;8.57;3.42;;;;;;;;;;2043903;29;20030;-90
2023/06/18 01:47:34;;;;;;;4.35;2.97;;;;;;;;;;1688899;29;10346029;-91
2023/06/18 01:48:37;;;;;;;8.30;3.83;;;;;;;;;;2040625;29;20047;-92
2023/06/18 01:49:40;;;;;;;8.95;3.55;;;;;;;;;;2048643;28;20126;-91
2023/06/18 01:50:45;;;;;;;7.32;3.38;;;;;;;;;;2041135;29;20520;-91
2023/06/18 01:51:49;;;;;;;6.40;3.15;;;;;;;;;;2049315;29;20114;-92
2023/06/18 01:52:51;;;;;;;4.75;3.03;;;;;;;;;;2049915;28;20031;-91
2023/06/18 01:53:54;;;;;;;4.88;2.90;;;;;;;;;;2039543;28;20035;-91
2023/06/18 01:54:59;;;;;;;6.75;3.05;;;;;;;;;;2049041;29;20023;-91
2023/06/18 01:56:01;;;;;;;8.80;3.35;;;;;;;;;;2041456;29;20440;-91
2023/06/18 01:57:03;;;;;;;7.95;3.75;;;;;;;;;;2041437;29;20443;-91
2023/06/18 01:58:04;;;;;;;4.85;3.05;;;;;;;;;;2048765;29;20511;-91
2023/06/18 01:59:05;;;;;;;4.45;2.50;;;;;;;;;;2049232;28;20031;-91
2023/06/18 02:00:07;;;;;;;6.75;3.30;;;;;;;;;;2048310;29;20063;-91
2023/06/18 02:01:09;;;;;;;7.30;3.05;;;;;;;;;;2048746;29;20026;-91
2023/06/18 02:02:12;;;;;;;9.00;3.42;;;;;;;;;;2043650;29;20050;-91
2023/06/18 02:03:12;;;;;;;5.85;2.80;;;;;;;;;;2042574;29;20098;-91
2023/06/18 02:04:13;;;;;;;9.15;2.95;;;;;;;;;;2058105;28;20027;-92
2023/06/18 02:05:14;;;;;;;7.30;2.60;;;;;;;;;;2057876;28;20032;-91
2023/06/18 02:06:15;;;;;;;4.65;2.95;;;;;;;;;;2057647;28;20082;-91
2023/06/18 02:07:15;;;;;;;8.10;3.33;;;;;;;;;;2055911;29;20022;-91
2023/06/18 02:08:16;;;;;;;5.07;2.80;;;;;;;;;;2048871;29;20038;-91
2023/06/18 02:09:17;;;;;;;6.25;3.03;;;;;;;;;;2048674;29;20508;-91
2023/06/18 02:10:17;;;;;;;6.88;2.60;;;;;;;;;;2049279;29;20400;-91
2023/06/18 02:11:18;;;;;;;6.15;3.83;;;;;;;;;;2040280;29;20107;-91
2023/06/18 02:12:18;;;;;;;4.63;2.90;;;;;;;;;;2048569;29;20488;-91
2023/06/18 02:13:21;;;;;;;5.00;2.72;;;;;;;;;;2049497;28;20157;-90
2023/06/18 02:14:21;;;;;;;6.15;3.05;;;;;;;;;;2049283;29;20102;-90
2023/06/18 02:15:22;;;;;;;5.50;2.85;;;;;;;;;;2048508;29;20031;-91
2023/06/18 02:16:22;;;;;;;6.32;2.92;;;;;;;;;;2053097;29;20019;-91
2023/06/18 02:17:23;;;;;;;4.43;3.08;;;;;;;;;;2057291;28;20011;-91
2023/06/18 02:18:23;;;;;;;7.07;3.10;;;;;;;;;;2051026;28;20364;-91
2023/06/18 02:19:24;;;;;;;5.57;3.88;;;;;;;;;;2049075;28;20031;-92
2023/06/18 02:20:25;;;;;;;7.95;3.50;;;;;;;;;;2052981;29;20027;-92
2023/06/18 02:21:26;;;;;;;5.77;3.20;;;;;;;;;;1710163;29;10002601;-91
2023/06/18 02:22:26;;;;;;;6.50;2.65;;;;;;;;;;2057844;28;20030;-91
2023/06/18 02:23:27;;;;;;;7.53;2.80;;;;;;;;;;2057712;28;20043;-91
2023/06/18 02:24:28;;;;;;;5.20;2.70;;;;;;;;;;2056783;29;20098;-91
2023/06/18 02:25:29;;;;;;;3.67;2.70;;;;;;;;;;2053559;29;20082;-91
2023/06/18 02:26:32;;;;;;;4.97;2.78;;;;;;;;;;2051075;28;20515;-92
2023/06/18 02:27:33;;;;;;;4.10;2.95;;;;;;;;;;2049075;29;20030;-91
2023/06/18 02:28:33;;;;;;;5.07;3.13;;;;;;;;;;2049722;29;20026;-91
2023/06/18 02:29:34;;;;;;;6.88;3.30;;;;;;;;;;2049310;29;20027;-91
2023/06/18 02:30:42;;;;;;;8.23;3.13;;;;;;;;;;2049797;28;20138;-91
2023/06/18 02:31:42;;;;;;;4.45;2.97;;;;;;;;;;2049333;29;20032;-91
2023/06/18 02:32:46;;;;;;;6.85;3.45;;;;;;;;;;2049101;29;20058;-92
2023/06/18 02:33:46;;;;;;;4.60;2.80;;;;;;;;;;2048092;29;20019;-92
2023/06/18 02:34:47;;;;;;;8.90;2.80;;;;;;;;;;2040453;29;20020;-91
2023/06/18 02:35:47;;;;;;;5.00;3.88;;;;;;;;;;2048402;29;20042;-91
2023/06/18 02:36:48;;;;;;;6.78;3.20;;;;;;;;;;2048110;29;20618;-92
2023/06/18 02:37:48;;;;;;;9.02;3.72;;;;;;;;;;2048536;29;20047;-92
2023/06/18 02:38:51;;;;;;;6.10;3.13;;;;;;;;;;2048275;29;20015;-90
2023/06/18 02:39:54;;;;;;;6.47;3.38;;;;;;;;;;2048729;29;20038;-91
2023/06/18 02:40:55;;;;;;;6.85;3.55;;;;;;;;;;2040548;29;20044;-91
2023/06/18 02:41:56;;;;;;;6.55;3.05;;;;;;;;;;2048594;29;20022;-91
2023/06/18 02:42:57;;;;;;;3.88;3.42;;;;;;;;;;2048938;29;20537;-92
2023/06/18 02:43:57;;;;;;;8.52;3.65;;;;;;;;;;2048690;29;20082;-92
2023/06/18 02:44:58;;;;;;;5.20;3.35;;;;;;;;;;2049068;29;20055;-91
2023/06/18 02:45:58;;;;;;;4.63;3.58;;;;;;;;;;2048281;29;20494;-92
2023/06/18 02:46:59;;;;;;;7.53;5.20;;;;;;;;;;2039946;29;20034;-90
2023/06/18 02:47:59;;;;;;;6.65;3.45;;;;;;;;;;2048455;29;20423;-91
2023/06/18 02:49:00;;;;;;;5.93;3.92;;;;;;;;;;2048751;28;20035;-91
2023/06/18 02:50:00;;;;;;;8.13;3.75;;;;;;;;;;2049206;28;20027;-91
2023/06/18 02:51:01;;;;;;;6.22;3.90;;;;;;;;;;2049187;29;20030;-91
2023/06/18 02:52:04;;;;;;;5.28;3.72;;;;;;;;;;2048864;28;20102;-92
2023/06/18 02:53:04;;;;;;;7.40;3.45;;;;;;;;;;2049572;29;20063;-92
2023/06/18 02:54:05;;;;;;;7.75;3.40;;;;;;;;;;2049007;29;20029;-92
2023/06/18 02:55:07;;;;;;;12.13;4.45;;;;;;;;;;2048980;29;20027;-90
2023/06/18 02:56:07;;;;;;;7.28;3.83;;;;;;;;;;2048663;29;20027;-91
2023/06/18 02:57:08;;;;;;;7.45;3.53;;;;;;;;;;2048923;29;20106;-91
2023/06/18 02:58:27;;;;;;;6.68;3.75;;;;;;;;;;2049203;28;20118;-91
2023/06/18 02:59:28;;;;;;;6.85;3.50;;;;;;;;;;2051582;28;20019;-92
2023/06/18 03:00:28;;;;;;;7.38;4.05;;;;;;;;;;2049129;28;20094;-91
2023/06/18 03:01:32;;;;;;;8.77;3.95;;;;;;;;;;2048914;28;20030;-92
2023/06/18 03:02:35;;;;;;;6.88;3.90;;;;;;;;;;2042709;29;20419;-92
2023/06/18 03:03:40;;;;;;;5.03;3.45;;;;;;;;;;1691392;28;10474445;-92
2023/06/18 03:04:40;;;;;;;6.00;3.97;;;;;;;;;;2049956;29;20379;-91
2023/06/18 03:05:41;;;;;;;6.55;3.88;;;;;;;;;;2055658;29;20023;-92
2023/06/18 03:06:44;;;;;;;10.48;3.60;;;;;;;;;;2058146;28;20067;-90
2023/06/18 03:07:47;;;;;;;7.85;4.32;;;;;;;;;;2050072;29;20015;-92
2023/06/18 03:08:47;;;;;;;5.93;4.25;;;;;;;;;;2041994;29;20047;-92
2023/06/18 03:09:48;;;;;;;7.35;3.63;;;;;;;;;;2050568;29;20030;-92
2023/06/18 03:10:48;;;;;;;7.20;3.88;;;;;;;;;;2050213;29;20034;-91
2023/06/18 03:11:51;;;;;;;4.30;3.33;;;;;;;;;;2049699;28;20031;-91
2023/06/18 03:12:52;;;;;;;5.35;3.90;;;;;;;;;;2049974;29;20126;-92
2023/06/18 03:13:52;;;;;;;5.45;3.60;;;;;;;;;;2050372;29;20019;-92
2023/06/18 03:14:59;;;;;;;5.60;3.97;;;;;;;;;;2051596;29;20483;-91
2023/06/18 03:16:00;;;;;;;3.92;3.53;;;;;;;;;;2043783;29;20098;-92
2023/06/18 03:17:08;;;;;;;7.25;3.65;;;;;;;;;;2049547;29;20058;-93
2023/06/18 03:18:11;;;;;;;5.03;3.60;;;;;;;;;;2048475;29;20031;-91
2023/06/18 03:19:12;;;;;;;5.13;4.00;;;;;;;;;;2048781;29;20023;-92
2023/06/18 03:20:13;;;;;;;5.97;3.80;;;;;;;;;;2048913;29;20059;-92
2023/06/18 03:21:15;;;;;;;5.10;3.17;;;;;;;;;;2040401;29;20622;-91
2023/06/18 03:22:16;;;;;;;10.80;4.80;;;;;;;;;;2040649;29;20024;-92
2023/06/18 03:23:16;;;;;;;9.05;4.63;;;;;;;;;;2048341;29;20230;-92
2023/06/18 03:24:17;;;;;;;7.78;4.28;;;;;;;;;;2049040;28;20163;-91
2023/06/18 03:25:19;;;;;;;6.25;3.95;;;;;;;;;;2048122;29;20118;-90
2023/06/18 03:26:19;;;;;;;6.78;3.80;;;;;;;;;;2047781;29;20259;-90
2023/06/18 03:27:20;;;;;;;7.18;4.30;;;;;;;;;;1691230;28;10439406;-91
2023/06/18 03:28:22;;;;;;;8.07;3.88;;;;;;;;;;2040144;29;20031;-90
2023/06/18 03:29:25;;;;;;;6.43;3.80;;;;;;;;;;2040186;29;20083;-92
2023/06/18 03:30:28;;;;;;;6.22;3.65;;;;;;;;;;2040631;29;20083;-91
2023/06/18 03:31:30;;;;;;;5.00;3.80;;;;;;;;;;2040711;29;20038;-91
2023/06/18 03:32:31;;;;;;;4.70;3.80;;;;;;;;;;2048491;29;20457;-92
2023/06/18 03:33:32;;;;;;;6.15;3.47;;;;;;;;;;2047808;29;20035;-91
2023/06/18 03:34:35;;;;;;;5.43;3.65;;;;;;;;;;2040659;29;20031;-91
2023/06/18 03:35:36;;;;;;;5.78;3.70;;;;;;;;;;2048509;28;20031;-91
2023/06/18 03:36:41;;;;;;;6.10;3.67;;;;;;;;;;2048135;29;20095;-92
2023/06/18 03:37:42;;;;;;;5.88;4.03;;;;;;;;;;2048223;29;20027;-92
2023/06/18 03:38:45;;;;;;;6.25;3.28;;;;;;;;;;2048243;29;20023;-91
2023/06/18 03:39:46;;;;;;;6.82;3.95;;;;;;;;;;2048538;29;20031;-91
2023/06/18 03:40:46;;;;;;;4.45;3.53;;;;;;;;;;2040602;29;20480;-92
2023/06/18 03:41:49;;;;;;;6.25;3.38;;;;;;;;;;2048247;29;20066;-91
2023/06/18 03:42:50;;;;;;;6.97;3.67;;;;;;;;;;1697936;28;10245914;-91
2023/06/18 03:43:52;;;;;;;5.72;3.75;;;;;;;;;;2048489;29;20480;-91
2023/06/18 03:44:54;;;;;;;7.43;3.85;;;;;;;;;;2048602;29;20023;-91
2023/06/18 03:45:57;;;;;;;6.00;3.90;;;;;;;;;;2048351;29;20578;-92
2023/06/18 03:46:59;;;;;;;4.45;3.33;;;;;;;;;;2048547;29;20031;-92
2023/06/18 03:48:02;;;;;;;5.68;3.47;;;;;;;;;;2048465;29;20423;-91
2023/06/18 03:49:03;;;;;;;6.28;3.28;;;;;;;;;;2045656;29;20102;-91
2023/06/18 03:50:09;;;;;;;4.60;3.28;;;;;;;;;;2048335;29;20314;-91
2023/06/18 03:51:10;;;;;;;4.72;3.78;;;;;;;;;;2038093;29;20043;-90
2023/06/18 03:52:10;;;;;;;7.55;3.75;;;;;;;;;;2049824;29;20114;-92
2023/06/18 03:53:11;;;;;;;5.15;3.28;;;;;;;;;;2048256;29;20035;-92
2023/06/18 03:54:13;;;;;;;5.88;3.53;;;;;;;;;;2041060;29;20099;-91
2023/06/18 03:55:15;;;;;;;6.53;3.67;;;;;;;;;;2053146;29;20098;-91
2023/06/18 03:56:16;;;;;;;6.10;3.58;;;;;;;;;;2053746;28;20031;-91
2023/06/18 03:57:17;;;;;;;6.53;3.63;;;;;;;;;;2048844;29;20038;-91
2023/06/18 03:58:18;;;;;;;7.03;3.80;;;;;;;;;;2048944;29;20027;-92
2023/06/18 03:59:18;;;;;;;4.90;3.13;;;;;;;;;;2049677;28;20062;-91
2023/06/18 04:00:19;;;;;;;5.28;3.65;;;;;;;;;;2048660;29;20066;-91
2023/06/18 04:01:20;;;;;;;7.10;3.80;;;;;;;;;;2048450;29;20038;-92
2023/06/18 04:02:20;;;;;;;4.30;3.10;;;;;;;;;;2048590;29;20054;-93
2023/06/18 04:03:21;;;;;;;4.15;3.70;;;;;;;;;;2040507;29;20434;-91
2023/06/18 04:04:24;;;;;;;5.00;3.67;;;;;;;;;;2048627;29;20090;-91
2023/06/18 04:05:27;;;;;;;10.23;3.50;;;;;;;;;;2048874;28;20033;-90
2023/06/18 04:06:28;;;;;;;6.43;3.25;;;;;;;;;;2048527;28;20455;-89
2023/06/18 04:07:30;;;;;;;4.22;3.53;;;;;;;;;;2048823;29;20058;-90
2023/06/18 04:08:31;;;;;;;6.00;3.72;;;;;;;;;;2047705;29;20031;-90
2023/06/18 04:09:32;;;;;;;6.63;3.67;;;;;;;;;;2047903;29;20039;-90
2023/06/18 04:10:33;;;;;;;6.18;3.28;;;;;;;;;;2047820;29;20089;-91
2023/06/18 04:11:33;;;;;;;6.38;3.88;;;;;;;;;;2047955;29;20027;-92
2023/06/18 04:12:34;;;;;;;4.97;3.58;;;;;;;;;;2048497;28;20471;-92
2023/06/18 04:13:35;;;;;;;4.38;3.50;;;;;;;;;;2047018;28;20086;-92
2023/06/18 04:14:36;;;;;;;5.55;3.95;;;;;;;;;;2047871;29;20030;-91
2023/06/18 04:15:36;;;;;;;4.82;3.58;;;;;;;;;;2048413;28;20015;-90
2023/06/18 04:16:37;;;;;;;5.22;3.70;;;;;;;;;;2047717;29;20110;-91
2023/06/18 04:17:41;;;;;;;5.28;3.88;;;;;;;;;;2040039;29;20043;-92
2023/06/18 04:18:44;;;;;;;6.07;3.50;;;;;;;;;;2049689;29;20023;-95
2023/06/18 04:19:45;;;;;;;7.20;3.50;;;;;;;;;;2042431;29;20496;-95
2023/06/18 04:20:46;;;;;;;6.65;3.33;;;;;;;;;;2042192;29;20409;-95
2023/06/18 04:21:48;;;;;;;5.43;3.03;;;;;;;;;;2042678;29;20087;-94
2023/06/18 04:22:48;;;;;;;4.95;3.20;;;;;;;;;;2042795;29;20057;-95
2023/06/18 04:23:49;;;;;;;4.53;3.03;;;;;;;;;;2043429;29;20035;-92
2023/06/18 04:24:50;;;;;;;5.55;3.15;;;;;;;;;;2043228;29;20431;-94
2023/06/18 04:25:50;;;;;;;4.22;3.17;;;;;;;;;;2044846;29;20070;-92
2023/06/18 04:26:51;;;;;;;4.65;3.65;;;;;;;;;;2058810;29;20035;-95
2023/06/18 04:27:54;;;;;;;4.35;3.40;;;;;;;;;;2057775;29;20083;-94
2023/06/18 04:28:54;;;;;;;3.92;3.17;;;;;;;;;;2048536;29;20016;-94
2023/06/18 04:29:54;;;;;;;3.58;3.25;;;;;;;;;;2058321;28;20075;-93
2023/06/18 04:30:55;;;;;;;6.28;3.25;;;;;;;;;;2058257;29;20004;-95
2023/06/18 04:31:56;;;;;;;3.35;3.03;;;;;;;;;;2053720;29;20034;-94
2023/06/18 04:32:57;;;;;;;3.83;3.08;;;;;;;;;;2050536;29;20023;-96
2023/06/18 04:33:57;;;;;;;4.80;3.05;;;;;;;;;;2050563;28;20031;-95
2023/06/18 04:35:01;;;;;;;4.50;2.80;;;;;;;;;;2041486;29;20031;-93
2023/06/18 04:36:02;;;;;;;5.50;3.35;;;;;;;;;;2049344;29;20407;-96
2023/06/18 04:37:04;;;;;;;4.63;2.88;;;;;;;;;;2049341;29;20030;-94
2023/06/18 04:38:06;;;;;;;4.75;2.78;;;;;;;;;;2049261;29;20035;-94
2023/06/18 04:39:06;;;;;;;3.40;2.97;;;;;;;;;;2048934;29;20037;-96
2023/06/18 04:40:08;;;;;;;7.65;3.40;;;;;;;;;;2049388;29;20533;-96
2023/06/18 04:41:09;;;;;;;4.55;3.22;;;;;;;;;;2040830;29;20179;-95
2023/06/18 04:42:10;;;;;;;4.63;2.97;;;;;;;;;;2041050;29;20028;-94
2023/06/18 04:43:13;;;;;;;4.72;3.30;;;;;;;;;;2040987;29;20072;-93
2023/06/18 04:44:14;;;;;;;4.57;2.90;;;;;;;;;;2047223;29;20071;-93
2023/06/18 04:45:14;;;;;;;2.63;2.42;;;;;;;;;;2048023;29;20020;-95
2023/06/18 04:46:15;;;;;;;10.32;4.15;;;;;;;;;;2049319;29;20043;-95
2023/06/18 04:47:19;;;;;;;4.35;2.22;;;;;;;;;;2049708;29;20016;-96
2023/06/18 04:48:19;;;;;;;3.63;2.25;;;;;;;;;;2050367;29;20039;-96
2023/06/18 04:49:20;;;;;;;4.97;2.75;;;;;;;;;;2050469;29;20034;-95
2023/06/18 04:50:21;;;;;;;5.13;3.17;;;;;;;;;;2054086;28;20031;-96
2023/06/18 04:51:24;;;;;;;3.45;2.92;;;;;;;;;;2035953;29;20036;-96
2023/06/18 04:52:25;;;;;;;4.65;2.83;;;;;;;;;;2034625;29;20338;-96
2023/06/18 04:53:29;;;;;;;4.75;2.97;;;;;;;;;;1663076;29;11108392;-95
2023/06/18 04:54:29;;;;;;;5.78;3.00;;;;;;;;;;2042304;29;20131;-95
2023/06/18 04:55:30;;;;;;;4.40;3.00;;;;;;;;;;2049588;29;20035;-95
2023/06/18 04:56:30;;;;;;;5.57;2.70;;;;;;;;;;2051429;29;20042;-96
2023/06/18 04:57:31;;;;;;;5.05;3.10;;;;;;;;;;2041425;29;20463;-95
2023/06/18 04:58:36;;;;;;;6.78;2.90;;;;;;;;;;2052481;28;20050;-93
2023/06/18 04:59:40;;;;;;;4.13;3.22;;;;;;;;;;2053643;29;20447;-95
2023/06/18 05:00:40;;;;;;;5.85;3.00;;;;;;;;;;2050006;29;20034;-96
2023/06/18 05:01:41;;;;;;;4.75;2.75;;;;;;;;;;2041298;29;20032;-94
2023/06/18 05:02:45;;;;;;;4.50;2.85;;;;;;;;;;2049852;29;20486;-95
2023/06/18 05:03:45;;;;;;;4.00;2.80;;;;;;;;;;2049385;28;20068;-91
2023/06/18 05:04:48;;;;;;;2.88;2.65;;;;;;;;;;2048049;29;20109;-92
2023/06/18 05:05:49;;;;;;;3.45;2.58;;;;;;;;;;2047902;29;20123;-91
2023/06/18 05:06:58;;;;;;;5.68;2.53;;;;;;;;;;2047639;29;20035;-91
2023/06/18 05:07:58;;;;;;;2.67;2.45;;;;;;;;;;2048368;28;20400;-90
2023/06/18 05:08:59;;;;;;;4.22;2.53;;;;;;;;;;2039597;29;20114;-90
2023/06/18 05:09:59;;;;;;;4.43;2.65;;;;;;;;;;2040052;29;20117;-91
2023/06/18 05:11:00;;;;;;;2.85;2.55;;;;;;;;;;2047836;29;20165;-91
2023/06/18 05:12:00;;;;;;;9.02;2.90;;;;;;;;;;2047689;29;20090;-91
2023/06/18 05:13:03;;;;;;;3.42;2.75;;;;;;;;;;2039603;29;20101;-91
2023/06/18 05:14:05;;;;;;;3.05;2.45;;;;;;;;;;2048025;28;20031;-90
2023/06/18 05:15:07;;;;;;;3.05;2.75;;;;;;;;;;2048401;28;20097;-91
2023/06/18 05:16:10;;;;;;;5.65;2.50;;;;;;;;;;2047766;29;20031;-91
2023/06/18 05:17:20;;;;;;;2.82;2.02;;;;;;;;;;1330965;29;10022591;-90
2023/06/18 05:18:22;;;;;;;4.75;2.83;;;;;;;;;;2048180;29;20233;-91
2023/06/18 05:19:24;;;;;;;3.38;2.78;;;;;;;;;;2049249;28;20070;-92
2023/06/18 05:20:24;;;;;;;3.65;2.70;;;;;;;;;;2047985;29;20416;-92
2023/06/18 05:21:25;;;;;;;3.08;2.80;;;;;;;;;;2047844;29;20117;-92
2023/06/18 05:22:35;;;;;;;9.50;4.74;;;;;;;;;;2028066;28;10259149;-93
2023/06/18 05:23:36;;;;;;;3.30;2.55;;;;;;;;;;2048253;29;20764;-93
2023/06/18 05:24:42;;;;;;;3.25;2.90;;;;;;;;;;2048194;28;20027;-93
2023/06/18 05:25:42;;;;;;;4.00;2.92;;;;;;;;;;2048634;28;20049;-92
2023/06/18 05:26:43;;;;;;;4.78;2.80;;;;;;;;;;2049322;28;20530;-92
2023/06/18 05:27:44;;;;;;;3.90;3.03;;;;;;;;;;2049542;29;20109;-91
2023/06/18 05:28:44;;;;;;;2.85;2.60;;;;;;;;;;2048784;28;20038;-93
2023/06/18 05:29:49;;;;;;;3.03;2.72;;;;;;;;;;2048963;29;20026;-92
2023/06/18 05:31:51;;;;;;;3.97;2.90;;;;;;;;;;2040852;29;20171;-92
2023/06/18 05:34:41;;;;;;;3.72;2.60;;;;;;;;;;2056183;28;20023;-90
2023/06/18 05:35:45;;;;;;;3.67;2.88;;;;;;;;;;2047350;29;20122;-94
2023/06/18 05:36:46;;;;;;;4.45;3.00;;;;;;;;;;2040756;29;20019;-94
2023/06/18 05:37:46;;;;;;;7.78;4.10;;;;;;;;;;2048165;29;20023;-92
2023/06/18 05:38:47;;;;;;;4.47;3.63;;;;;;;;;;2040472;29;20496;-92
2023/06/18 05:39:50;;;;;;;3.70;3.40;;;;;;;;;;2037813;29;20031;-93
2023/06/18 05:40:51;;;;;;;4.97;3.35;;;;;;;;;;2039930;29;20073;-93
2023/06/18 05:41:51;;;;;;;5.13;3.08;;;;;;;;;;2034198;29;20039;-93
2023/06/18 05:42:52;;;;;;;4.72;3.10;;;;;;;;;;2040512;29;20099;-94
2023/06/18 05:43:55;;;;;;;4.22;3.58;;;;;;;;;;2047337;29;20024;-93
2023/06/18 05:44:57;;;;;;;3.67;3.38;;;;;;;;;;2043133;28;20051;-93
2023/06/18 05:46:02;;;;;;;4.57;3.60;;;;;;;;;;2042262;29;20546;-93
2023/06/18 05:47:06;;;;;;;5.65;3.95;;;;;;;;;;2032288;29;20032;-92
2023/06/18 05:48:11;;;;;;;6.00;3.85;;;;;;;;;;2036682;29;20046;-92
2023/06/18 05:49:12;;;;;;;6.00;4.05;;;;;;;;;;2040369;29;20115;-91
2023/06/18 05:50:18;;;;;;;5.18;3.63;;;;;;;;;;2041953;29;20030;-91
2023/06/18 05:51:19;;;;;;;9.75;6.25;;;;;;;;;;2040040;29;20135;-92
2023/06/18 05:52:20;;;;;;;7.03;4.40;;;;;;;;;;2040012;29;20568;-92
2023/06/18 05:53:20;;;;;;;5.90;4.20;;;;;;;;;;2039964;29;20118;-92
2023/06/18 05:54:25;;;;;;;7.40;4.00;;;;;;;;;;2041215;29;20047;-92
2023/06/18 05:55:26;;;;;;;5.15;3.83;;;;;;;;;;2032169;29;20032;-93
2023/06/18 05:56:26;;;;;;;5.78;3.58;;;;;;;;;;2032461;29;20024;-92
2023/06/18 05:57:29;;;;;;;6.60;3.50;;;;;;;;;;2040701;29;20027;-92
2023/06/18 05:58:30;;;;;;;6.03;4.20;;;;;;;;;;2040761;29;20115;-91
2023/06/18 05:59:33;;;;;;;4.25;3.83;;;;;;;;;;2041025;29;20027;-92
2023/06/18 06:00:42;;;;;;;4.60;4.07;;;;;;;;;;2042451;29;20110;-92
2023/06/18 06:01:44;;;;;;;6.55;4.72;;;;;;;;;;2039472;29;20543;-91
2023/06/18 06:02:46;;;;;;;9.50;4.18;;;;;;;;;;2040726;29;20503;-91
2023/06/18 06:03:47;;;;;;;4.30;3.90;;;;;;;;;;2039795;29;20457;-92
2023/06/18 06:04:57;;;;;;;4.50;3.65;;;;;;;;;;2044364;29;20023;-92
2023/06/18 06:06:01;;;;;;;4.55;4.00;;;;;;;;;;1676075;29;10467883;-91
2023/06/18 06:07:10;;;;;;;6.88;4.00;;;;;;;;;;2034062;29;20099;-90
2023/06/18 06:08:21;;;;;;;4.40;3.55;;;;;;;;;;2041067;29;20079;-90
2023/06/18 06:09:21;;;;;;;;;;;;;;;;;;2044484;29;20079;-91
2023/06/18 06:10:22;;;;;;;6.47;3.17;;;;;;;;;;2048760;29;19910;-90
2023/06/18 06:11:26;;;;;;;4.93;3.50;;;;;;;;;;2049173;28;20019;-91
2023/06/18 06:12:27;;;;;;;4.10;3.70;;;;;;;;;;2049604;28;20515;-91
2023/06/18 06:13:27;;;;;;;5.80;3.67;;;;;;;;;;2040351;29;20071;-92
2023/06/18 06:14:28;;;;;;;4.80;3.80;;;;;;;;;;2039562;29;20084;-92
2023/06/18 06:15:29;;;;;;;5.82;4.63;;;;;;;;;;2039891;29;20055;-91
2023/06/18 06:16:30;;;;;;;5.05;4.40;;;;;;;;;;2047887;29;20106;-93